Time,TemperatureF,DewpointF,PressureIn,WindDirection,WindDirectionDegrees,WindSpeedMPH,WindSpeedGustMPH,Humidity,HourlyPrecipIn,Conditions,Clouds,dailyrainin,SoftwareType,DateUTC
2013-05-17 00:03:00,63.3,41.0,30.00,West,281,0.0,0.0,44,0.00,CLR,CLR,0.00,WeatherDisplay:10.37,2013-05-17 04:03:00,
2013-05-17 00:18:00,63.5,40.0,30.00,South,180,0.0,1.0,42,0.00,CLR,CLR,0.00,WeatherDisplay:10.37,2013-05-17 04:18:00,
2013-05-17 00:33:00,63.3,39.2,30.00,South,180,0.0,0.0,41,0.00,CLR,CLR,0.00,WeatherDisplay:10.37,2013-05-17 04:33:00,
2013-05-17 00:48:00,63.5,39.4,30.00,South,180,0.0,1.0,41,0.00,CLR,CLR,0.00,WeatherDisplay:10.37,2013-05-17 04:48:00,
2013-05-17 01:18:00,62.6,38.6,30.00,South,180,0.0,0.0,41,0.00,CLR,CLR,0.00,WeatherDisplay:10.37,2013-05-17 05:18:00,
2013-05-17 01:33:00,61.9,39.1,30.03,South,180,0.0,0.0,43,0.00,CLR,CLR,0.00,WeatherDisplay:10.37,2013-05-17 05:33:00,
2013-05-17 01:48:00,62.1,40.5,30.03,North,0,0.0,1.0,45,0.00,CLR,CLR,0.00,WeatherDisplay:10.37,2013-05-17 05:48:00,
2013-05-17 02:03:00,62.2,41.7,30.03,West,266,0.0,1.0,47,0.00,CLR,CLR,0.00,WeatherDisplay:10.37,2013-05-17 06:03:00,
2013-05-17 02:18:00,62.4,41.4,30.03,ENE,74,0.0,1.0,46,0.00,CLR,CLR,0.00,WeatherDisplay:10.37,2013-05-17 06:18:00,
2013-05-17 02:33:00,62.6,42.1,30.03,NE,45,1.0,2.0,47,0.00,CLR,CLR,0.00,WeatherDisplay:10.37,2013-05-17 06:33:00,
2013-05-17 02:34:00,62.6,44.2,30.03,NE,45,0.0,2.0,51,0.00,SCT,SCT,0.00,WeatherDisplay:10.37,2013-05-17 06:34:00,
2013-05-17 02:35:00,62.6,44.2,30.03,NE,45,0.0,0.0,51,0.00,SCT,SCT,0.00,WeatherDisplay:10.37,2013-05-17 06:35:00,
2013-05-17 02:36:00,62.6,44.2,30.03,NE,45,0.0,0.0,51,0.00,SCT,SCT,0.00,WeatherDisplay:10.37,2013-05-17 06:36:00,
2013-05-17 02:37:00,62.6,44.2,30.03,NE,45,0.0,0.0,51,0.00,SCT,SCT,0.00,WeatherDisplay:10.37,2013-05-17 06:37:00,
2013-05-17 02:38:00,62.6,44.2,30.03,NE,45,0.0,0.0,51,0.00,SCT,SCT,0.00,WeatherDisplay:10.37,2013-05-17 06:38:00,
2013-05-17 02:39:00,62.6,44.2,30.03,NE,45,0.0,0.0,51,0.00,SCT,SCT,0.00,WeatherDisplay:10.37,2013-05-17 06:39:00,
2013-05-17 02:40:00,62.6,44.2,30.03,NE,45,0.0,0.0,51,0.00,SCT,SCT,0.00,WeatherDisplay:10.37,2013-05-17 06:40:00,
2013-05-17 02:41:00,62.6,44.2,30.03,NE,45,0.0,0.0,51,0.00,SCT,SCT,0.00,WeatherDisplay:10.37,2013-05-17 06:41:00,
2013-05-17 02:42:00,62.6,44.2,30.03,NE,45,0.0,0.0,51,0.00,SCT,SCT,0.00,WeatherDisplay:10.37,2013-05-17 06:42:00,
2013-05-17 02:43:00,62.6,44.2,30.03,NE,45,0.0,0.0,51,0.00,SCT,SCT,0.00,WeatherDisplay:10.37,2013-05-17 06:43:00,
2013-05-17 02:44:00,62.6,44.2,30.03,NE,45,0.0,0.0,51,0.00,SCT,SCT,0.00,WeatherDisplay:10.37,2013-05-17 06:44:00,
2013-05-17 02:45:00,62.6,44.2,30.03,NE,45,0.0,0.0,51,0.00,SCT,SCT,0.00,WeatherDisplay:10.37,2013-05-17 06:45:00,
2013-05-17 02:46:00,62.6,44.2,30.03,NE,45,0.0,0.0,51,0.00,SCT,SCT,0.00,WeatherDisplay:10.37,2013-05-17 06:46:00,
2013-05-17 02:47:00,62.6,44.2,30.03,NE,45,0.0,0.0,51,0.00,SCT,SCT,0.00,WeatherDisplay:10.37,2013-05-17 06:47:00,
2013-05-17 02:48:00,62.6,44.2,30.03,NE,45,0.0,0.0,51,0.00,SCT,SCT,0.00,WeatherDisplay:10.37,2013-05-17 06:48:00,
2013-05-17 07:47:00,62.6,44.2,30.03,NE,45,2.5,0.0,51,0.00,CLR,,0.00,WeatherDisplay:10.37,2013-05-17 11:47:00,
2013-05-17 07:48:00,62.6,44.2,30.03,NE,45,1.2,0.0,51,0.00,SCT,,0.00,WeatherDisplay:10.37,2013-05-17 11:48:00,
2013-05-17 07:49:00,62.6,61.4,30.03,NNE,22,0.0,0.0,96,0.00,SCT,,0.00,WeatherDisplay:10.37,2013-05-17 11:49:00,
2013-05-17 07:54:00,62.8,61.3,30.03,SE,135,1.2,0.0,95,0.00,SCT,,0.00,WeatherDisplay:10.37,2013-05-17 11:54:00,
2013-05-17 07:59:00,62.8,61.6,30.03,East,90,0.0,0.0,96,0.00,SCT,,0.00,WeatherDisplay:10.37,2013-05-17 11:59:00,
2013-05-17 08:04:00,63.0,61.5,30.06,SE,135,0.0,0.0,95,0.00,BKN,,0.00,WeatherDisplay:10.37,2013-05-17 12:04:00,
2013-05-17 08:09:00,63.1,61.7,30.06,SE,135,0.0,0.0,95,0.00,BKN,,0.00,WeatherDisplay:10.37,2013-05-17 12:09:00,
2013-05-17 08:14:00,63.3,61.9,30.06,NE,45,0.0,0.0,95,0.00,BKN,,0.00,WeatherDisplay:10.37,2013-05-17 12:14:00,
2013-05-17 08:19:00,63.9,62.4,30.06,South,180,3.1,0.0,95,0.00,BKN,,0.00,WeatherDisplay:10.37,2013-05-17 12:19:00,
2013-05-17 08:24:00,64.2,62.8,30.06,South,180,0.0,0.0,95,0.00,BKN,,0.00,WeatherDisplay:10.37,2013-05-17 12:24:00,
2013-05-17 08:29:00,64.8,63.0,30.06,North,0,1.2,0.0,94,0.00,BKN,,0.00,WeatherDisplay:10.37,2013-05-17 12:29:00,
2013-05-17 08:34:00,65.3,62.9,30.06,SE,135,0.0,0.0,92,0.00,BKN,,0.00,WeatherDisplay:10.37,2013-05-17 12:34:00,
2013-05-17 08:39:00,65.8,62.8,30.06,SW,225,2.3,2.3,90,0.00,BKN,,0.00,WeatherDisplay:10.37,2013-05-17 12:39:00,
2013-05-17 08:44:00,66.2,62.2,30.06,East,90,2.4,2.4,87,0.00,BKN,,0.00,WeatherDisplay:10.37,2013-05-17 12:44:00,
2013-05-17 08:49:00,66.6,62.2,30.06,South,180,1.2,1.2,86,0.00,BKN,,0.00,WeatherDisplay:10.37,2013-05-17 12:49:00,
2013-05-17 08:54:00,67.1,61.8,30.06,South,180,2.3,2.3,83,0.00,BKN,,0.00,WeatherDisplay:10.37,2013-05-17 12:54:00,
2013-05-17 08:59:00,67.6,61.9,30.06,South,180,1.2,0.0,82,0.00,BKN,,0.00,WeatherDisplay:10.37,2013-05-17 12:59:00,
2013-05-17 09:04:00,68.2,61.8,30.06,SE,135,0.0,0.0,80,0.00,BKN,,0.00,WeatherDisplay:10.37,2013-05-17 13:04:00,
2013-05-17 09:09:00,68.7,61.9,30.06,SE,135,0.0,0.0,79,0.00,BKN,,0.00,WeatherDisplay:10.37,2013-05-17 13:09:00,
2013-05-17 09:14:00,69.3,61.4,30.06,SE,135,1.2,1.2,76,0.00,BKN,,0.00,WeatherDisplay:10.37,2013-05-17 13:14:00,
2013-05-17 09:19:00,70.0,61.3,30.06,South,180,1.2,1.2,74,0.00,BKN,,0.00,WeatherDisplay:10.37,2013-05-17 13:19:00,
2013-05-17 09:24:00,70.2,58.3,30.06,South,180,2.3,2.3,66,0.00,BKN,,0.00,WeatherDisplay:10.37,2013-05-17 13:24:00,
2013-05-17 09:29:00,70.5,56.9,30.06,SW,225,2.3,2.3,62,0.00,BKN,,0.00,WeatherDisplay:10.37,2013-05-17 13:29:00,
2013-05-17 09:34:00,70.2,54.2,30.06,SW,225,2.3,2.3,57,0.00,OVC,,0.00,WeatherDisplay:10.37,2013-05-17 13:34:00,
2013-05-17 09:40:00,70.5,54.5,30.06,SSW,202,2.3,2.3,57,0.00,OVC,,0.00,WeatherDisplay:10.37,2013-05-17 13:40:00,
2013-05-17 09:45:00,70.7,54.7,30.06,South,180,1.4,1.4,57,0.00,OVC,,0.00,WeatherDisplay:10.37,2013-05-17 13:45:00,
2013-05-17 09:50:00,70.9,54.9,30.06,South,180,0.9,0.0,57,0.00,OVC,,0.00,WeatherDisplay:10.37,2013-05-17 13:50:00,
2013-05-17 09:55:00,70.9,54.9,30.06,West,270,2.3,2.3,57,0.00,OVC,,0.00,WeatherDisplay:10.37,2013-05-17 13:55:00,
2013-05-17 10:00:00,70.9,54.9,30.06,SSW,202,1.2,1.2,57,0.00,OVC,,0.00,WeatherDisplay:10.37,2013-05-17 14:00:00,
2013-05-17 10:05:00,70.7,54.7,30.06,SSW,202,2.3,2.3,57,0.00,OVC,,0.00,WeatherDisplay:10.37,2013-05-17 14:05:00,
2013-05-17 10:10:00,70.7,54.7,30.06,SW,225,1.2,1.2,57,0.00,OVC,,0.00,WeatherDisplay:10.37,2013-05-17 14:10:00,
2013-05-17 10:15:00,70.7,54.7,30.06,South,180,1.2,0.0,57,0.00,OVC,,0.00,WeatherDisplay:10.37,2013-05-17 14:15:00,
2013-05-17 10:20:00,71.1,55.1,30.03,NE,45,0.0,0.0,57,0.00,OVC,,0.00,WeatherDisplay:10.37,2013-05-17 14:20:00,
2013-05-17 10:25:00,71.2,55.2,30.03,West,270,0.0,0.0,57,0.00,OVC,,0.00,WeatherDisplay:10.37,2013-05-17 14:25:00,
2013-05-17 10:30:00,71.4,55.4,30.03,South,180,1.2,0.0,57,0.00,OVC,,0.00,WeatherDisplay:10.37,2013-05-17 14:30:00,
2013-05-17 10:34:00,71.2,53.2,30.06,South,180,2.6,2.6,53,0.00,OVC,,0.00,WeatherDisplay:10.37,2013-05-17 14:34:00,
2013-05-17 10:39:00,71.2,53.2,30.06,South,180,2.3,2.3,53,0.00,OVC,,0.00,WeatherDisplay:10.37,2013-05-17 14:39:00,
2013-05-17 10:44:00,71.2,53.2,30.06,South,180,2.3,2.3,53,0.00,OVC,,0.00,WeatherDisplay:10.37,2013-05-17 14:44:00,
2013-05-17 10:49:00,71.4,53.4,30.06,NNE,22,2.3,2.3,53,0.00,OVC,,0.00,WeatherDisplay:10.37,2013-05-17 14:49:00,
2013-05-17 10:54:00,71.8,52.7,30.06,SW,225,2.3,2.3,51,0.00,OVC,,0.00,WeatherDisplay:10.37,2013-05-17 14:54:00,
2013-05-17 10:59:00,71.8,52.7,30.06,SW,225,1.2,1.2,51,0.00,OVC,,0.00,WeatherDisplay:10.37,2013-05-17 14:59:00,
2013-05-17 11:04:00,72.0,52.8,30.06,South,180,2.3,2.3,51,0.00,OVC,,0.00,WeatherDisplay:10.37,2013-05-17 15:04:00,
2013-05-17 11:09:00,72.1,53.0,30.06,SE,135,2.0,2.0,51,0.00,OVC,,0.00,WeatherDisplay:10.37,2013-05-17 15:09:00,
2013-05-17 11:14:00,72.3,53.2,30.06,SSW,202,2.3,2.3,51,0.00,OVC,,0.00,WeatherDisplay:10.37,2013-05-17 15:14:00,
2013-05-17 11:19:00,72.5,53.3,30.06,South,180,1.4,1.4,51,0.00,OVC,,0.00,WeatherDisplay:10.37,2013-05-17 15:19:00,
2013-05-17 11:24:00,72.5,53.3,30.06,South,180,2.3,2.3,51,0.00,OVC,,0.00,WeatherDisplay:10.37,2013-05-17 15:24:00,
2013-05-17 11:29:00,72.3,53.2,30.06,SSW,202,3.5,3.5,51,0.00,OVC,,0.00,WeatherDisplay:10.37,2013-05-17 15:29:00,
2013-05-17 11:34:00,72.0,52.8,30.09,South,180,2.3,2.3,51,0.00,OVC,,0.00,WeatherDisplay:10.37,2013-05-17 15:34:00,
2013-05-17 11:39:00,71.8,52.7,30.09,SW,225,4.6,4.6,51,0.00,OVC,,0.00,WeatherDisplay:10.37,2013-05-17 15:39:00,
2013-05-17 11:44:00,71.1,53.1,30.09,South,180,3.5,3.5,53,0.00,OVC,,0.00,WeatherDisplay:10.37,2013-05-17 15:44:00,
2013-05-17 11:49:00,70.9,52.9,30.09,NE,45,3.5,3.5,53,0.00,OVC,,0.00,WeatherDisplay:10.37,2013-05-17 15:49:00,
2013-05-17 11:54:00,70.7,52.7,30.09,South,180,3.5,3.5,53,0.00,OVC,,0.00,WeatherDisplay:10.37,2013-05-17 15:54:00,
2013-05-17 11:59:00,70.7,52.7,30.09,South,180,5.8,5.8,53,0.00,OVC,,0.00,WeatherDisplay:10.37,2013-05-17 15:59:00,
2013-05-17 12:04:00,70.5,52.6,30.09,South,180,2.4,2.4,53,0.00,OVC,,0.00,WeatherDisplay:10.37,2013-05-17 16:04:00,
2013-05-17 12:09:00,70.7,54.7,30.09,SSW,202,2.6,2.6,57,0.00,OVC,,0.00,WeatherDisplay:10.37,2013-05-17 16:09:00,
2013-05-17 12:14:00,70.9,54.9,30.09,SW,225,3.5,3.5,57,0.00,OVC,,0.00,WeatherDisplay:10.37,2013-05-17 16:14:00,
2013-05-17 12:19:00,70.9,54.9,30.09,South,180,3.5,3.5,57,0.00,-RA,,0.00,WeatherDisplay:10.37,2013-05-17 16:19:00,
2013-05-17 12:24:00,70.9,54.9,30.09,South,180,2.3,2.3,57,0.00,-RA,,0.00,WeatherDisplay:10.37,2013-05-17 16:24:00,
2013-05-17 12:29:00,71.4,55.4,30.09,South,180,0.0,0.0,57,0.00,-RA,,0.00,WeatherDisplay:10.37,2013-05-17 16:29:00,
2013-05-17 12:34:00,72.0,55.9,30.09,East,90,1.2,0.0,57,0.00,-RA,,0.00,WeatherDisplay:10.37,2013-05-17 16:34:00,
2013-05-17 12:39:00,72.3,56.2,30.09,South,180,1.4,0.0,57,0.00,-RA,,0.00,WeatherDisplay:10.37,2013-05-17 16:39:00,
2013-05-17 12:44:00,73.0,56.9,30.09,South,180,1.2,0.0,57,0.00,-RA,,0.00,WeatherDisplay:10.37,2013-05-17 16:44:00,
2013-05-17 12:49:00,74.5,57.3,30.09,NNW,338,0.0,0.0,55,0.00,-RA,,0.00,WeatherDisplay:10.37,2013-05-17 16:49:00,
2013-05-17 12:54:00,75.6,55.1,30.09,SE,135,0.0,0.0,49,0.00,-RA,,0.00,WeatherDisplay:10.37,2013-05-17 16:54:00,
2013-05-17 12:59:00,76.5,55.9,30.09,SSW,202,1.2,0.0,49,0.00,-RA,,0.00,WeatherDisplay:10.37,2013-05-17 16:59:00,
2013-05-17 13:04:00,76.3,55.7,30.06,South,180,2.3,2.3,49,0.00,OVC,,0.00,WeatherDisplay:10.37,2013-05-17 17:04:00,
2013-05-17 13:09:00,76.1,55.5,30.06,South,180,0.0,0.0,49,0.00,OVC,,0.00,WeatherDisplay:10.37,2013-05-17 17:09:00,
2013-05-17 13:14:00,75.9,55.4,30.06,SE,135,0.0,0.0,49,0.00,OVC,,0.00,WeatherDisplay:10.37,2013-05-17 17:14:00,
2013-05-17 13:19:00,76.3,55.7,30.09,SE,135,0.0,0.0,49,0.00,OVC,,0.00,WeatherDisplay:10.37,2013-05-17 17:19:00,
2013-05-17 13:24:00,76.3,55.7,30.09,South,180,2.3,2.3,49,0.00,OVC,,0.00,WeatherDisplay:10.37,2013-05-17 17:24:00,
2013-05-17 13:29:00,75.9,55.4,30.09,South,180,3.5,3.5,49,0.00,OVC,,0.00,WeatherDisplay:10.37,2013-05-17 17:29:00,
2013-05-17 13:34:00,74.8,55.5,30.09,SSW,202,4.0,4.0,51,0.00,OVC,,0.00,WeatherDisplay:10.37,2013-05-17 17:34:00,
2013-05-17 13:39:00,73.6,54.3,30.09,South,180,5.8,5.8,51,0.00,OVC,,0.00,WeatherDisplay:10.37,2013-05-17 17:39:00,
2013-05-17 13:44:00,72.3,53.2,30.09,SSW,202,3.5,3.5,51,0.00,OVC,,0.00,WeatherDisplay:10.37,2013-05-17 17:44:00,
2013-05-17 13:49:00,71.4,53.4,30.09,SSW,202,3.5,3.5,53,0.00,OVC,,0.00,WeatherDisplay:10.37,2013-05-17 17:49:00,
2013-05-17 13:54:00,70.7,54.7,30.09,South,180,3.5,3.5,57,0.00,OVC,,0.00,WeatherDisplay:10.37,2013-05-17 17:54:00,
2013-05-17 13:59:00,70.5,54.5,30.09,South,180,2.3,2.3,57,0.00,OVC,,0.00,WeatherDisplay:10.37,2013-05-17 17:59:00,
2013-05-17 14:04:00,70.3,56.7,30.09,South,180,2.3,2.3,62,0.00,OVC,,0.00,WeatherDisplay:10.37,2013-05-17 18:04:00,
2013-05-17 14:09:00,70.3,56.7,30.09,South,180,3.5,3.5,62,0.00,OVC,,0.00,WeatherDisplay:10.37,2013-05-17 18:09:00,
2013-05-17 14:14:00,70.5,56.9,30.09,South,180,3.5,3.5,62,0.00,OVC,,0.00,WeatherDisplay:10.37,2013-05-17 18:14:00,
2013-05-17 14:19:00,70.7,57.0,30.09,South,180,3.5,3.5,62,0.00,OVC,,0.00,WeatherDisplay:10.37,2013-05-17 18:19:00,
2013-05-17 14:24:00,71.2,57.5,30.09,South,180,2.3,2.3,62,0.00,OVC,,0.00,WeatherDisplay:10.37,2013-05-17 18:24:00,
2013-05-17 14:29:00,71.2,57.5,30.09,WSW,248,3.3,3.3,62,0.00,OVC,,0.00,WeatherDisplay:10.37,2013-05-17 18:29:00,
2013-05-17 14:34:00,71.2,57.5,30.09,SSW,202,3.5,3.5,62,0.00,-RA,,0.00,WeatherDisplay:10.37,2013-05-17 18:34:00,
2013-05-17 14:39:00,70.9,57.2,30.09,South,180,3.6,3.6,62,0.00,-RA,,0.00,WeatherDisplay:10.37,2013-05-17 18:39:00,
2013-05-17 14:44:00,70.2,56.5,30.09,SW,225,3.5,3.5,62,0.00,-RA,,0.00,WeatherDisplay:10.37,2013-05-17 18:44:00,
2013-05-17 14:49:00,70.0,56.4,30.09,SW,225,5.8,5.8,62,0.00,-RA,,0.00,WeatherDisplay:10.37,2013-05-17 18:49:00,
2013-05-17 14:54:00,69.3,55.7,30.09,SW,225,4.6,4.6,62,0.00,-RA,,0.00,WeatherDisplay:10.37,2013-05-17 18:54:00,
2013-05-17 14:59:00,68.9,55.3,30.09,SW,225,5.8,5.8,62,0.00,-RA,,0.00,WeatherDisplay:10.37,2013-05-17 18:59:00,
2013-05-17 15:04:00,68.7,56.0,30.06,SSW,202,5.8,5.8,64,0.00,BKN,,0.00,WeatherDisplay:10.37,2013-05-17 19:04:00,
2013-05-17 15:09:00,68.7,56.0,30.06,SW,225,5.8,5.8,64,0.00,BKN,,0.00,WeatherDisplay:10.37,2013-05-17 19:09:00,
2013-05-17 15:14:00,68.4,55.7,30.06,SW,225,4.6,4.6,64,0.00,BKN,,0.00,WeatherDisplay:10.37,2013-05-17 19:14:00,
2013-05-17 15:19:00,68.4,55.7,30.06,SW,225,5.8,5.8,64,0.00,-RA,,0.00,WeatherDisplay:10.37,2013-05-17 19:19:00,
2013-05-17 15:24:00,68.0,56.2,30.06,SW,225,5.8,5.8,66,0.00,-RA,,0.00,WeatherDisplay:10.37,2013-05-17 19:24:00,
2013-05-17 15:29:00,68.0,55.4,30.06,South,180,4.6,4.6,64,0.00,-RA,,0.00,WeatherDisplay:10.37,2013-05-17 19:29:00,
2013-05-17 15:34:00,68.2,55.5,30.06,SW,225,5.8,5.8,64,0.00,-RA,,0.00,WeatherDisplay:10.37,2013-05-17 19:34:00,
2013-05-17 15:39:00,68.0,55.4,30.06,South,180,5.8,5.8,64,0.00,-RA,,0.00,WeatherDisplay:10.37,2013-05-17 19:39:00,
2013-05-17 15:44:00,67.8,56.9,30.06,SW,225,4.6,4.6,68,0.00,-RA,,0.00,WeatherDisplay:10.37,2013-05-17 19:44:00,
2013-05-17 15:49:00,67.8,56.9,30.06,SW,225,3.6,3.6,68,0.00,-RA,,0.00,WeatherDisplay:10.37,2013-05-17 19:49:00,
2013-05-17 15:54:00,67.5,55.7,30.06,South,180,4.6,4.6,66,0.00,-RA,,0.00,WeatherDisplay:10.37,2013-05-17 19:54:00,
2013-05-17 15:59:00,67.1,57.0,30.06,South,180,5.8,5.8,70,0.00,-RA,,0.00,WeatherDisplay:10.37,2013-05-17 19:59:00,
2013-05-17 16:04:00,67.3,58.3,30.06,West,270,4.7,4.7,73,0.00,BKN,,0.00,WeatherDisplay:10.37,2013-05-17 20:04:00,
2013-05-17 16:09:00,66.9,58.4,30.06,South,180,9.2,9.2,74,0.00,BKN,,0.00,WeatherDisplay:10.37,2013-05-17 20:09:00,
2013-05-17 16:14:00,66.7,58.2,30.06,WSW,248,5.8,5.8,74,0.00,BKN,,0.00,WeatherDisplay:10.37,2013-05-17 20:14:00,
2013-05-17 16:19:00,66.7,58.2,30.06,South,180,4.6,4.6,74,0.00,BKN,,0.00,WeatherDisplay:10.37,2013-05-17 20:19:00,
2013-05-17 16:24:00,67.1,60.7,30.06,SW,225,2.4,2.4,80,0.00,BKN,,0.00,WeatherDisplay:10.37,2013-05-17 20:24:00,
2013-05-17 16:29:00,67.3,59.5,30.06,South,180,3.5,3.5,76,0.00,BKN,,0.00,WeatherDisplay:10.37,2013-05-17 20:29:00,
2013-05-17 16:34:00,67.6,60.2,30.06,South,180,2.3,2.3,77,0.00,-RA,,0.00,WeatherDisplay:10.37,2013-05-17 20:34:00,
2013-05-17 16:39:00,67.6,59.1,30.06,SSW,202,4.6,4.6,74,0.00,-RA,,0.00,WeatherDisplay:10.37,2013-05-17 20:39:00,
2013-05-17 16:44:00,67.6,58.7,30.06,South,180,3.5,3.5,73,0.00,-RA,,0.00,WeatherDisplay:10.37,2013-05-17 20:44:00,
2013-05-17 16:49:00,68.0,59.4,30.06,SSW,202,2.3,2.3,74,0.00,-RA,,0.00,WeatherDisplay:10.37,2013-05-17 20:49:00,
2013-05-17 16:54:00,68.5,59.5,30.06,South,180,3.3,3.3,73,0.00,-RA,,0.00,WeatherDisplay:10.37,2013-05-17 20:54:00,
2013-05-17 16:59:00,68.5,59.5,30.06,SW,225,3.5,3.5,73,0.00,-RA,,0.00,WeatherDisplay:10.37,2013-05-17 20:59:00,
2013-05-17 17:04:00,69.1,60.1,30.06,South,180,4.6,4.6,73,0.00,-RA,,0.00,WeatherDisplay:10.37,2013-05-17 21:04:00,
2013-05-17 17:09:00,69.3,59.5,30.06,SSW,202,2.3,2.4,71,0.00,-RA,,0.00,WeatherDisplay:10.37,2013-05-17 21:09:00,
2013-05-17 17:14:00,69.8,60.0,30.06,East,90,2.3,2.3,71,0.00,-RA,,0.00,WeatherDisplay:10.37,2013-05-17 21:14:00,
2013-05-17 17:19:00,70.5,60.3,30.06,East,90,0.0,0.0,70,0.00,-RA,,0.00,WeatherDisplay:10.37,2013-05-17 21:19:00,
2013-05-17 17:24:00,70.3,58.4,30.06,South,180,3.5,3.5,66,0.00,-RA,,0.00,WeatherDisplay:10.37,2013-05-17 21:24:00,
2013-05-17 17:29:00,70.5,59.4,30.06,South,180,2.3,2.4,68,0.00,-RA,,0.00,WeatherDisplay:10.37,2013-05-17 21:29:00,
2013-05-17 17:34:00,70.5,58.6,30.06,South,180,2.3,2.3,66,0.00,-RA,,0.00,WeatherDisplay:10.37,2013-05-17 21:34:00,
2013-05-17 17:39:00,70.7,58.8,30.06,East,90,0.0,0.0,66,0.00,-RA,,0.00,WeatherDisplay:10.37,2013-05-17 21:39:00,
2013-05-17 17:44:00,70.5,58.6,30.06,SW,225,0.0,0.0,66,0.00,-RA,,0.00,WeatherDisplay:10.37,2013-05-17 21:44:00,
2013-05-17 17:49:00,70.5,58.6,30.06,SE,135,0.0,0.0,66,0.00,-RA,,0.00,WeatherDisplay:10.37,2013-05-17 21:49:00,
2013-05-17 17:54:00,70.5,58.6,30.06,WNW,292,0.0,0.0,66,0.00,-RA,,0.00,WeatherDisplay:10.37,2013-05-17 21:54:00,
2013-05-17 17:59:00,70.3,58.4,30.06,SSE,158,2.3,0.0,66,0.00,-RA,,0.00,WeatherDisplay:10.37,2013-05-17 21:59:00,
2013-05-17 18:04:00,70.2,59.1,30.06,South,180,0.0,0.0,68,0.00,SCT,,0.00,WeatherDisplay:10.37,2013-05-17 22:04:00,
2013-05-17 18:09:00,70.0,55.0,30.06,NE,45,0.0,0.0,59,0.00,SCT,,0.00,WeatherDisplay:10.37,2013-05-17 22:09:00,
2013-05-17 18:14:00,70.2,55.2,30.06,North,0,0.0,0.0,59,0.00,SCT,,0.00,WeatherDisplay:10.37,2013-05-17 22:14:00,
2013-05-17 18:18:00,65.5,42.4,30.06,NE,45,2.0,2.0,43,0.00,CLR,CLR,0.00,WeatherDisplay:10.37,2013-05-17 22:18:00,
2013-05-17 18:19:00,70.3,55.3,30.06,North,0,1.4,0.0,59,0.00,FEW,,0.00,WeatherDisplay:10.37,2013-05-17 22:19:00,
2013-05-17 18:24:00,70.7,55.7,30.06,North,0,0.0,0.0,59,0.00,FEW,,0.00,WeatherDisplay:10.37,2013-05-17 22:24:00,
2013-05-17 18:29:00,71.4,56.3,30.06,SW,225,0.0,0.0,59,0.00,FEW,,0.00,WeatherDisplay:10.37,2013-05-17 22:29:00,
2013-05-17 18:33:00,65.3,44.0,30.03,NE,43,2.0,3.0,46,0.00,CLR,CLR,0.00,WeatherDisplay:10.37,2013-05-17 22:33:00,
2013-05-17 18:34:00,72.1,56.1,30.03,SE,135,1.2,0.0,57,0.05,-RA,,0.05,WeatherDisplay:10.37,2013-05-17 22:34:00,
2013-05-17 18:39:00,72.5,56.4,30.03,East,90,0.0,0.0,57,0.05,-RA,,0.05,WeatherDisplay:10.37,2013-05-17 22:39:00,
2013-05-17 18:44:00,72.5,56.4,30.03,SW,225,0.9,0.0,57,0.05,-RA,,0.05,WeatherDisplay:10.37,2013-05-17 22:44:00,
2013-05-17 18:48:00,65.5,44.7,30.06,NE,45,1.0,3.0,47,0.00,CLR,CLR,0.00,WeatherDisplay:10.37,2013-05-17 22:48:00,
2013-05-17 18:49:00,72.5,55.4,30.03,South,180,1.4,0.0,55,0.05,SCT,,0.05,WeatherDisplay:10.37,2013-05-17 22:49:00,
2013-05-17 18:54:00,72.3,55.2,30.03,East,90,1.2,0.0,55,0.05,SCT,,0.05,WeatherDisplay:10.37,2013-05-17 22:54:00,
2013-05-17 18:59:00,72.1,54.1,30.03,East,90,0.9,0.0,53,0.05,SCT,,0.05,WeatherDisplay:10.37,2013-05-17 22:59:00,
2013-05-17 19:03:00,65.5,44.7,30.06,ENE,65,1.0,2.0,47,0.00,CLR,CLR,0.00,WeatherDisplay:10.37,2013-05-17 23:03:00,
2013-05-17 19:04:00,71.8,53.7,30.03,North,0,0.0,0.0,53,0.05,SCT,,0.05,WeatherDisplay:10.37,2013-05-17 23:04:00,
2013-05-17 19:09:00,71.8,53.7,30.03,North,0,0.0,0.0,53,0.05,SCT,,0.05,WeatherDisplay:10.37,2013-05-17 23:09:00,
2013-05-17 19:14:00,71.6,53.6,30.03,NNE,22,0.0,0.0,53,0.05,SCT,,0.05,WeatherDisplay:10.37,2013-05-17 23:14:00,
2013-05-17 19:18:00,65.3,42.8,30.03,NE,49,1.0,2.0,44,0.00,CLR,CLR,0.00,WeatherDisplay:10.37,2013-05-17 23:18:00,
2013-05-17 19:19:00,71.4,53.4,30.03,East,90,1.2,0.0,53,0.05,BKN,,0.05,WeatherDisplay:10.37,2013-05-17 23:19:00,
2013-05-17 19:24:00,71.2,54.2,30.03,East,90,1.2,0.0,55,0.05,BKN,,0.05,WeatherDisplay:10.37,2013-05-17 23:24:00,
2013-05-17 19:29:00,70.9,31.2,30.03,East,90,0.0,0.0,23,0.05,BKN,,0.05,WeatherDisplay:10.37,2013-05-17 23:29:00,
2013-05-17 19:33:00,65.3,42.2,30.06,NE,38,0.0,2.0,43,0.00,CLR,CLR,0.00,WeatherDisplay:10.37,2013-05-17 23:33:00,
2013-05-17 19:34:00,70.7,67.3,30.06,East,90,0.0,0.0,89,0.00,BKN,,0.05,WeatherDisplay:10.37,2013-05-17 23:34:00,
2013-05-17 19:39:00,70.2,66.8,30.06,NE,45,1.2,1.2,89,0.00,BKN,,0.05,WeatherDisplay:10.37,2013-05-17 23:39:00,
2013-05-17 19:44:00,70.0,66.6,30.06,NE,45,0.0,0.0,89,0.00,BKN,,0.05,WeatherDisplay:10.37,2013-05-17 23:44:00,
2013-05-17 19:48:00,65.3,41.0,30.06,NE,45,0.0,2.0,41,0.00,CLR,CLR,0.00,WeatherDisplay:10.37,2013-05-17 23:48:00,
2013-05-17 19:49:00,69.6,66.2,30.03,NE,45,0.0,0.0,89,0.00,BKN,,0.05,WeatherDisplay:10.37,2013-05-17 23:49:00,
2013-05-17 19:54:00,69.4,66.4,30.03,SE,135,0.0,0.0,90,0.00,BKN,,0.05,WeatherDisplay:10.37,2013-05-17 23:54:00,
2013-05-17 19:59:00,69.3,66.2,30.03,SE,135,0.9,0.0,90,0.00,BKN,,0.05,WeatherDisplay:10.37,2013-05-17 23:59:00,
2013-05-17 20:03:00,65.1,41.4,30.06,WNW,284,1.0,1.0,42,0.00,CLR,CLR,0.00,WeatherDisplay:10.37,2013-05-18 00:03:00,
2013-05-17 20:04:00,68.9,65.8,30.06,East,90,1.2,0.0,90,0.00,BKN,,0.05,WeatherDisplay:10.37,2013-05-18 00:04:00,
2013-05-17 20:09:00,68.7,66.0,30.06,SE,135,1.4,0.0,91,0.00,BKN,,0.05,WeatherDisplay:10.37,2013-05-18 00:09:00,
2013-05-17 20:14:00,68.2,66.1,30.06,NE,45,0.0,0.0,93,0.00,BKN,,0.05,WeatherDisplay:10.37,2013-05-18 00:14:00,
2013-05-17 20:18:00,65.1,42.1,30.06,NE,40,1.0,2.0,43,0.00,CLR,CLR,0.00,WeatherDisplay:10.37,2013-05-18 00:18:00,
2013-05-17 20:19:00,67.8,66.3,30.06,NE,45,0.0,0.0,95,0.00,BKN,,0.05,WeatherDisplay:10.37,2013-05-18 00:19:00,
2013-05-17 20:24:00,67.6,66.8,30.06,NE,45,0.0,0.0,97,0.00,BKN,,0.05,WeatherDisplay:10.37,2013-05-18 00:24:00,
2013-05-17 20:29:00,67.5,66.6,30.06,NE,45,0.0,0.0,97,0.00,BKN,,0.05,WeatherDisplay:10.37,2013-05-18 00:29:00,
2013-05-17 20:33:00,65.1,40.8,30.06,NE,40,1.0,2.0,41,0.00,CLR,CLR,0.00,WeatherDisplay:10.37,2013-05-18 00:33:00,
2013-05-17 20:35:00,67.1,66.2,30.06,NE,45,1.4,1.4,97,0.00,BKN,,0.05,WeatherDisplay:10.37,2013-05-18 00:35:00,
2013-05-17 20:40:00,66.9,66.0,30.06,NE,45,2.3,2.3,97,0.00,BKN,,0.05,WeatherDisplay:10.37,2013-05-18 00:40:00,
2013-05-17 20:45:00,66.7,65.9,30.06,NE,45,1.4,1.4,97,0.00,BKN,,0.05,WeatherDisplay:10.37,2013-05-18 00:45:00,
2013-05-17 20:48:00,65.1,40.2,30.06,NE,45,1.0,2.0,40,0.00,CLR,CLR,0.00,WeatherDisplay:10.37,2013-05-18 00:48:00,
2013-05-17 20:50:00,66.7,65.9,30.06,NE,45,1.4,1.4,97,0.00,BKN,,0.05,WeatherDisplay:10.37,2013-05-18 00:50:00,
2013-05-17 20:55:00,66.6,65.7,30.06,WNW,292,1.2,1.4,97,0.00,BKN,,0.05,WeatherDisplay:10.37,2013-05-18 00:55:00,
2013-05-17 21:00:00,66.6,65.7,30.06,SW,225,0.0,0.0,97,0.00,BKN,,0.05,WeatherDisplay:10.37,2013-05-18 01:00:00,
2013-05-17 21:05:00,66.4,65.5,30.06,SW,225,0.0,0.0,97,0.00,BKN,,0.05,WeatherDisplay:10.37,2013-05-18 01:05:00,
2013-05-17 21:10:00,66.4,65.5,30.06,SW,225,0.0,0.0,97,0.00,BKN,,0.05,WeatherDisplay:10.37,2013-05-18 01:10:00,
2013-05-17 21:15:00,66.2,65.3,30.06,WSW,248,1.2,0.0,97,0.00,BKN,,0.05,WeatherDisplay:10.37,2013-05-18 01:15:00,
2013-05-17 21:18:00,64.9,40.0,30.03,NNE,29,1.0,2.0,40,0.00,CLR,CLR,0.00,WeatherDisplay:10.37,2013-05-18 01:18:00,
2013-05-17 21:20:00,66.2,65.3,30.06,WSW,248,0.0,0.0,97,0.00,-RA,,0.05,WeatherDisplay:10.37,2013-05-18 01:20:00,
2013-05-17 21:25:00,66.2,65.3,30.06,WSW,248,0.0,0.0,97,0.00,-RA,,0.05,WeatherDisplay:10.37,2013-05-18 01:25:00,
2013-05-17 21:30:00,66.2,65.3,30.06,WSW,248,0.0,0.0,97,0.00,-RA,,0.05,WeatherDisplay:10.37,2013-05-18 01:30:00,
2013-05-17 21:33:00,64.9,40.7,30.03,NE,49,1.0,2.0,41,0.00,CLR,CLR,0.00,WeatherDisplay:10.37,2013-05-18 01:33:00,
2013-05-17 21:35:00,66.2,65.3,30.06,WSW,248,0.0,0.0,97,0.00,-RA,,0.05,WeatherDisplay:10.37,2013-05-18 01:35:00,
2013-05-17 21:40:00,66.2,65.3,30.06,WSW,248,1.6,1.6,97,0.00,-RA,,0.05,WeatherDisplay:10.37,2013-05-18 01:40:00,
2013-05-17 21:45:00,66.2,65.3,30.06,West,270,1.2,1.2,97,0.00,-RA,,0.05,WeatherDisplay:10.37,2013-05-18 01:45:00,
2013-05-17 21:48:00,65.1,40.8,30.00,NE,34,0.0,2.0,41,0.00,CLR,CLR,0.00,WeatherDisplay:10.37,2013-05-18 01:48:00,
2013-05-17 21:51:00,66.2,65.3,30.06,West,270,0.0,0.0,97,0.00,-RA,,0.05,WeatherDisplay:10.37,2013-05-18 01:51:00,
2013-05-17 21:56:00,66.0,65.1,30.06,West,270,0.0,0.0,97,0.00,-RA,,0.05,WeatherDisplay:10.37,2013-05-18 01:56:00,
2013-05-17 22:01:00,66.0,65.1,30.06,West,270,0.0,0.0,97,0.00,-RA,,0.05,WeatherDisplay:10.37,2013-05-18 02:01:00,
2013-05-17 22:06:00,66.0,65.1,30.06,West,270,0.0,0.0,97,0.00,-RA,,0.05,WeatherDisplay:10.37,2013-05-18 02:06:00,
2013-05-17 22:11:00,66.0,65.1,30.06,West,270,0.0,0.0,97,0.00,-RA,,0.05,WeatherDisplay:10.37,2013-05-18 02:11:00,
2013-05-17 22:16:00,66.0,65.1,30.06,West,270,0.0,0.0,97,0.00,OVC,,0.05,WeatherDisplay:10.37,2013-05-18 02:16:00,
2013-05-17 22:18:00,65.1,42.7,30.00,NE,41,1.0,2.0,44,0.00,CLR,CLR,0.00,WeatherDisplay:10.37,2013-05-18 02:18:00,
2013-05-17 22:21:00,66.0,65.1,30.06,West,270,0.0,0.0,97,0.00,OVC,,0.05,WeatherDisplay:10.37,2013-05-18 02:21:00,
2013-05-17 22:26:00,65.8,65.0,30.06,West,270,0.0,0.0,97,0.00,OVC,,0.05,WeatherDisplay:10.37,2013-05-18 02:26:00,
2013-05-17 22:31:00,65.8,65.0,30.06,West,270,0.0,0.0,97,0.00,OVC,,0.05,WeatherDisplay:10.37,2013-05-18 02:31:00,
2013-05-17 22:33:00,64.8,42.9,30.00,North,350,0.0,2.0,45,0.00,CLR,CLR,0.00,WeatherDisplay:10.37,2013-05-18 02:33:00,
2013-05-17 22:36:00,65.8,65.0,30.03,West,270,0.0,0.0,97,0.00,OVC,,0.05,WeatherDisplay:10.37,2013-05-18 02:36:00,
2013-05-17 22:42:00,65.7,64.8,30.03,West,270,0.9,0.0,97,0.00,OVC,,0.05,WeatherDisplay:10.37,2013-05-18 02:42:00,
2013-05-17 22:47:00,65.7,64.8,30.03,West,270,0.0,0.0,97,0.00,OVC,,0.05,WeatherDisplay:10.37,2013-05-18 02:47:00,
2013-05-17 22:48:00,64.6,43.3,30.00,NE,43,1.0,1.0,46,0.00,CLR,CLR,0.00,WeatherDisplay:10.37,2013-05-18 02:48:00,
2013-05-17 22:52:00,65.7,64.8,30.06,SSW,202,2.6,0.0,97,0.00,OVC,,0.05,WeatherDisplay:10.37,2013-05-18 02:52:00,
2013-05-17 22:57:00,65.8,65.0,30.06,SW,225,2.3,2.3,97,0.00,OVC,,0.05,WeatherDisplay:10.37,2013-05-18 02:57:00,
2013-05-17 23:02:00,65.8,65.0,30.06,SW,225,0.0,0.0,97,0.00,-RA,,0.00,WeatherDisplay:10.37,2013-05-18 03:02:00,
2013-05-17 23:03:00,64.6,44.4,30.00,SW,215,1.0,1.0,48,0.00,CLR,CLR,0.00,WeatherDisplay:10.37,2013-05-18 03:03:00,
2013-05-17 23:18:00,64.4,44.3,30.03,East,85,0.0,0.0,48,0.00,CLR,CLR,0.00,WeatherDisplay:10.37,2013-05-18 03:18:00,
2013-05-17 23:33:00,64.4,45.3,30.00,ENE,68,0.0,0.0,50,0.00,CLR,CLR,0.00,WeatherDisplay:10.37,2013-05-18 03:33:00,
2013-05-17 23:48:00,64.2,46.2,30.00,ENE,68,0.0,0.0,52,0.00,CLR,CLR,0.00,WeatherDisplay:10.37,2013-05-18 03:48:00,